Regional de Maringá - Sílvio Name Júnior Airport

SBMG · Paraná, Brazil

METAR history SBMG · Regional de Maringá - Sílvio Name Júnior Airport

Below you see METARs of the last few days. Select a year to browse through older METARs, from the year 2007 onwards.

May 19, 2024

Time Code Weather Temp. Visibility Ceiling Wind METAR/SPECI
05:00
V
18 °C 10 km+ - 200° 200° 3 kt METAR SBMG 190800Z AUTO 20003KT CAVOK 18/18 Q1016
04:00
V
18 °C 10 km+ - 200° 200° 3 kt METAR SBMG 190700Z AUTO 20003KT 9999 FEW001/// 18/18 Q1017
03:00
M
18 °C 9 km 2,300 ft 220° 220° 4 kt METAR SBMG 190600Z AUTO 22004KT 9000 FEW001/// BKN023/// 18/18 Q1018
02:00
V
18 °C 10 km+ - 180° 180° 5 kt METAR SBMG 190500Z AUTO 18005KT 140V220 9999 SCT001/// 18/18 Q1018
01:00
V
19 °C 10 km+ 5,500 ft 220° 220° 6 kt METAR SBMG 190400Z AUTO 22006KT 9999 -RA BKN055/// OVC070/// 19/17 Q1018
00:00
V
20 °C 10 km+ - 180° 180° 4 kt METAR SBMG 190300Z AUTO 18004KT 9999 FEW033/// 20/18 Q1019

May 18, 2024

Time Code Weather Temp. Visibility Ceiling Wind METAR/SPECI
23:00
V
20 °C 10 km+ - 230° 230° 5 kt METAR SBMG 190200Z 23005KT CAVOK 20/18 Q1019
22:00
V
21 °C 10 km+ - 220° 220° 5 kt METAR SBMG 190100Z 22005KT CAVOK 21/18 Q1018
21:00
V
22 °C 10 km+ 9,000 ft 230° 230° 7 kt METAR SBMG 190000Z 23007KT 9999 FEW030 BKN090 22/19 Q1018
20:00
V
23 °C 10 km+ - 230° 230° 5 kt METAR SBMG 182300Z 23005KT 9999 SCT030 SCT090 23/19 Q1017
19:00
V
23 °C 10 km+ - 240° 240° 7 kt METAR SBMG 182200Z 24007KT CAVOK 23/19 Q1016
18:00
V
24 °C 10 km+ - 260° 260° 6 kt METAR SBMG 182100Z 26006KT CAVOK 24/20 Q1016
17:00
V
26 °C 10 km+ - 250° 250° 5 kt METAR SBMG 182000Z 25005KT 9999 FEW040 26/20 Q1015
15:00
V
27 °C 10 km+ 10,000 ft 260° 260° 4 kt METAR SBMG 181800Z 26004KT 9999 FEW045 BKN100 27/20 Q1016
14:00
V
25 °C 10 km+ 7,000 ft 270° 270° 7 kt METAR SBMG 181700Z 27007KT 230V290 9999 FEW020 SCT045 BKN070 25/20 Q1016
13:00
V
25 °C 10 km+ 7,000 ft 250° 250° 4 kt METAR SBMG 181600Z 25004KT 220V280 9999 FEW019 SCT045 BKN070 25/20 Q1017
12:00
V
24 °C 10 km+ 7,000 ft 240° 240° 5 kt METAR SBMG 181500Z 24005KT 210V280 9999 FEW020 BKN070 24/19 Q1018
11:00
V
23 °C 10 km+ 7,000 ft 250° 250° 4 kt METAR SBMG 181400Z 25004KT 200V290 9999 FEW020 FEW040TCU BKN070 23/19 Q1018
10:00
V
22 °C 10 km+ 5,000 ft 280° 280° 3 kt METAR SBMG 181300Z 28003KT 240V300 9999 FEW040 BKN050 BKN100 22/19 Q1018
09:00
V
21 °C 10 km+ 5,000 ft 290° 290° 3 kt METAR SBMG 181200Z 29003KT 260V350 9999 FEW040 BKN050 BKN100 21/19 Q1018
08:00
V
22 °C 10 km+ 5,000 ft 180° 180° 4 kt METAR SBMG 181100Z 18004KT 9999 -RA FEW040 BKN050 BKN100 22/19 Q1017
07:00
V
22 °C 10 km+ 10,000 ft 140° 140° 2 kt METAR SBMG 181000Z 14002KT 9999 FEW045 SCT050 BKN100 22/18 Q1016
06:00
V
21 °C 10 km+ 6,000 ft 220° 220° 3 kt METAR SBMG 180900Z AUTO 22003KT 9999 BKN060/// OVC092/// 21/18 Q1016
05:00
V
22 °C 10 km+ 6,700 ft 200° 200° 3 kt METAR SBMG 180800Z AUTO 20003KT 9999 BKN067/// 22/18 Q1015
04:00
V
23 °C 10 km+ - Var Var 1 kt METAR SBMG 180700Z AUTO VRB01KT CAVOK 23/17 Q1015
03:00
V
23 °C 10 km+ - 310° 310° 3 kt METAR SBMG 180600Z AUTO 31003KT CAVOK 23/16 Q1015
02:00
V
24 °C 10 km+ - 010° 010° 1 kt METAR SBMG 180500Z AUTO 01001KT CAVOK 24/16 Q1015
01:00
V
25 °C 10 km+ - 060° 060° 2 kt METAR SBMG 180400Z AUTO 06002KT CAVOK 25/16 Q1016
00:00
V
25 °C 10 km+ 8,500 ft 120° 120° 3 kt METAR SBMG 180300Z AUTO 12003KT 9999 FEW067/// BKN085/// 25/17 Q1016

May 17, 2024

Time Code Weather Temp. Visibility Ceiling Wind METAR/SPECI
23:00
V
26 °C 10 km+ 4,500 ft 110° 110° 2 kt METAR SBMG 180200Z 11002KT 9999 BKN045 BKN090 26/16 Q1016
22:00
V
26 °C 10 km+ 4,500 ft Var Var 1 kt METAR SBMG 180100Z VRB01KT 9999 FEW040TCU BKN045 BKN090 26/17 Q1016
21:00
V
25 °C 10 km+ 4,500 ft 340° 340° 1 kt METAR SBMG 180000Z 34001KT 9999 FEW040 BKN045 BKN090 25/17 Q1016 RESHRA
20:00
V
26 °C 10 km+ 9,000 ft 220° 220° 3 kt METAR SBMG 172300Z 22003KT 9999 SCT045 BKN090 26/16 Q1015
19:00
V
26 °C 10 km+ 4,500 ft 230° 230° 4 kt METAR SBMG 172200Z 23004KT 9999 BKN045 BKN090 26/17 Q1015
18:00
V
26 °C 10 km+ - 210° 210° 3 kt METAR SBMG 172100Z 21003KT 9999 SCT045 26/17 Q1014
17:00
V
28 °C 10 km+ - Var Var 2 kt METAR SBMG 172000Z VRB02KT 9999 FEW045 28/17 Q1014
16:00
V
28 °C 10 km+ 4,500 ft 240° 240° 6 kt METAR SBMG 171900Z 24006KT 9999 BKN045 FEW050TCU 28/18 Q1014
15:00
V
29 °C 10 km+ 4,500 ft 210° 210° 6 kt METAR SBMG 171800Z 21006KT 9999 BKN045 FEW050TCU 29/18 Q1014
14:00
V
28 °C 10 km+ 7,000 ft 210° 210° 5 kt METAR SBMG 171700Z 21005KT 9999 VCSH SCT040 FEW050TCU BKN070 28/19 Q1014
13:00
V
30 °C 10 km+ 7,000 ft 310° 310° 11 kt METAR SBMG 171600Z 31011KT 9999 SCT040 BKN070 30/18 Q1015
12:00
V
30 °C 10 km+ - 320° 320° 12 kt METAR SBMG 171500Z 32012KT 9999 SCT040 SCT100 30/20 Q1016
11:00
V
29 °C 10 km+ - 350° 350° 8 kt METAR SBMG 171400Z 35008KT 9999 FEW040 29/19 Q1016
10:00
V
26 °C 10 km+ - 010° 010° 9 kt METAR SBMG 171300Z 01009KT 9999 FEW045 26/18 Q1017
09:00
V
24 °C 10 km+ - 020° 020° 10 kt METAR SBMG 171200Z 02010KT 9999 SCT045 24/17 Q1016
08:00
V
23 °C 10 km+ - 020° 020° 10 kt METAR SBMG 171100Z 02010KT 9999 FEW045 SCT100 23/17 Q1016
07:00
V
22 °C 10 km+ - 020° 020° 9 kt METAR SBMG 171000Z 02009KT CAVOK 22/17 Q1015
06:00
V
22 °C 10 km+ 6,500 ft 030° 030° 8 kt METAR SBMG 170900Z AUTO 03008KT 9999 BKN065/// 22/17 Q1015
05:00
V
22 °C 10 km+ - 040° 040° 7 kt METAR SBMG 170800Z AUTO 04007KT 9999 SCT080/// 22/17 Q1014
04:00
V
22 °C 10 km+ - 030° 030° 7 kt METAR SBMG 170700Z AUTO 03007KT CAVOK 22/17 Q1017
03:00
V
22 °C 10 km+ - 030° 030° 5 kt METAR SBMG 170600Z AUTO 03005KT CAVOK 22/18 Q1014
Report a change